sensor_id;sensor_type;location;lat;lon;timestamp;P1;durP1;ratioP1;P2;durP2;ratioP2
33170;SDS011;19535;50.672;4.206;2023-01-06T00:00:35;7.18;;;6.57;;
33170;SDS011;19535;50.672;4.206;2023-01-06T00:03:03;6.50;;;5.97;;
33170;SDS011;19535;50.672;4.206;2023-01-06T00:05:30;6.45;;;5.85;;
33170;SDS011;19535;50.672;4.206;2023-01-06T00:07:57;6.45;;;5.85;;
33170;SDS011;19535;50.672;4.206;2023-01-06T00:10:24;6.30;;;5.80;;
33170;SDS011;19535;50.672;4.206;2023-01-06T00:12:52;6.72;;;6.13;;
33170;SDS011;19535;50.672;4.206;2023-01-06T00:15:19;6.47;;;5.97;;
33170;SDS011;19535;50.672;4.206;2023-01-06T00:17:46;6.50;;;6.00;;
33170;SDS011;19535;50.672;4.206;2023-01-06T00:20:13;6.43;;;5.85;;
33170;SDS011;19535;50.672;4.206;2023-01-06T00:22:40;6.00;;;5.55;;
33170;SDS011;19535;50.672;4.206;2023-01-06T00:25:08;5.85;;;5.45;;
33170;SDS011;19535;50.672;4.206;2023-01-06T00:27:36;5.70;;;5.30;;
33170;SDS011;19535;50.672;4.206;2023-01-06T00:30:04;5.43;;;5.03;;
33170;SDS011;19535;50.672;4.206;2023-01-06T00:32:31;5.47;;;5.05;;
33170;SDS011;19535;50.672;4.206;2023-01-06T00:34:58;5.97;;;5.47;;
33170;SDS011;19535;50.672;4.206;2023-01-06T00:37:25;5.10;;;4.70;;
33170;SDS011;19535;50.672;4.206;2023-01-06T00:39:52;5.60;;;5.10;;
33170;SDS011;19535;50.672;4.206;2023-01-06T00:42:19;5.32;;;4.93;;
33170;SDS011;19535;50.672;4.206;2023-01-06T00:44:48;5.38;;;4.97;;
33170;SDS011;19535;50.672;4.206;2023-01-06T00:47:15;5.07;;;4.68;;
33170;SDS011;19535;50.672;4.206;2023-01-06T00:49:42;4.97;;;4.57;;
33170;SDS011;19535;50.672;4.206;2023-01-06T00:52:09;5.55;;;5.05;;
33170;SDS011;19535;50.672;4.206;2023-01-06T00:54:36;5.20;;;4.80;;
33170;SDS011;19535;50.672;4.206;2023-01-06T00:57:04;5.00;;;4.60;;
33170;SDS011;19535;50.672;4.206;2023-01-06T00:59:32;5.18;;;4.78;;
33170;SDS011;19535;50.672;4.206;2023-01-06T01:02:00;5.15;;;4.75;;
33170;SDS011;19535;50.672;4.206;2023-01-06T01:04:27;5.18;;;4.78;;
33170;SDS011;19535;50.672;4.206;2023-01-06T01:06:54;4.72;;;4.22;;
33170;SDS011;19535;50.672;4.206;2023-01-06T01:09:23;4.70;;;4.32;;
33170;SDS011;19535;50.672;4.206;2023-01-06T01:11:51;4.80;;;4.40;;
33170;SDS011;19535;50.672;4.206;2023-01-06T01:14:47;5.07;;;4.68;;
33170;SDS011;19535;50.672;4.206;2023-01-06T01:17:22;5.07;;;4.68;;
33170;SDS011;19535;50.672;4.206;2023-01-06T01:19:51;4.50;;;4.20;;
33170;SDS011;19535;50.672;4.206;2023-01-06T01:22:21;4.70;;;4.40;;
33170;SDS011;19535;50.672;4.206;2023-01-06T01:24:49;4.40;;;4.10;;
33170;SDS011;19535;50.672;4.206;2023-01-06T01:27:16;4.28;;;3.97;;
33170;SDS011;19535;50.672;4.206;2023-01-06T01:29:44;4.63;;;4.22;;
33170;SDS011;19535;50.672;4.206;2023-01-06T01:32:11;4.47;;;4.18;;
33170;SDS011;19535;50.672;4.206;2023-01-06T01:34:38;3.72;;;3.42;;
33170;SDS011;19535;50.672;4.206;2023-01-06T01:37:05;4.35;;;4.05;;
33170;SDS011;19535;50.672;4.206;2023-01-06T01:39:32;3.92;;;3.63;;
33170;SDS011;19535;50.672;4.206;2023-01-06T01:41:59;3.97;;;3.67;;
33170;SDS011;19535;50.672;4.206;2023-01-06T01:50:25;3.85;;;3.55;;
33170;SDS011;19535;50.672;4.206;2023-01-06T01:53:01;4.22;;;3.90;;
33170;SDS011;19535;50.672;4.206;2023-01-06T01:55:30;4.25;;;3.65;;
33170;SDS011;19535;50.672;4.206;2023-01-06T01:58:00;3.97;;;3.67;;
33170;SDS011;19535;50.672;4.206;2023-01-06T02:00:30;3.80;;;3.50;;
33170;SDS011;19535;50.672;4.206;2023-01-06T02:02:57;3.22;;;3.03;;
33170;SDS011;19535;50.672;4.206;2023-01-06T02:05:24;3.20;;;3.00;;
33170;SDS011;19535;50.672;4.206;2023-01-06T02:07:53;3.95;;;3.65;;
33170;SDS011;19535;50.672;4.206;2023-01-06T02:10:23;3.47;;;3.17;;
33170;SDS011;19535;50.672;4.206;2023-01-06T02:12:51;3.38;;;3.08;;
33170;SDS011;19535;50.672;4.206;2023-01-06T02:15:21;3.30;;;3.00;;
33170;SDS011;19535;50.672;4.206;2023-01-06T02:26:09;3.28;;;2.97;;
33170;SDS011;19535;50.672;4.206;2023-01-06T02:32:02;2.72;;;2.53;;
33170;SDS011;19535;50.672;4.206;2023-01-06T02:34:34;2.65;;;2.45;;
33170;SDS011;19535;50.672;4.206;2023-01-06T02:45:26;2.58;;;2.38;;
33170;SDS011;19535;50.672;4.206;2023-01-06T02:48:27;2.28;;;2.08;;
33170;SDS011;19535;50.672;4.206;2023-01-06T02:51:12;2.35;;;2.15;;
33170;SDS011;19535;50.672;4.206;2023-01-06T02:54:00;2.40;;;2.20;;
33170;SDS011;19535;50.672;4.206;2023-01-06T02:57:04;2.30;;;2.13;;
33170;SDS011;19535;50.672;4.206;2023-01-06T02:59:52;2.20;;;2.00;;
33170;SDS011;19535;50.672;4.206;2023-01-06T03:02:25;2.55;;;2.35;;
33170;SDS011;19535;50.672;4.206;2023-01-06T03:04:53;2.30;;;2.10;;
33170;SDS011;19535;50.672;4.206;2023-01-06T03:07:21;2.67;;;2.45;;
33170;SDS011;19535;50.672;4.206;2023-01-06T03:09:49;2.42;;;2.20;;
33170;SDS011;19535;50.672;4.206;2023-01-06T03:12:26;3.00;;;2.20;;
33170;SDS011;19535;50.672;4.206;2023-01-06T03:15:07;2.13;;;2.03;;
33170;SDS011;19535;50.672;4.206;2023-01-06T03:17:34;2.20;;;2.08;;
33170;SDS011;19535;50.672;4.206;2023-01-06T03:20:01;2.10;;;1.90;;
33170;SDS011;19535;50.672;4.206;2023-01-06T03:22:29;1.95;;;1.85;;
33170;SDS011;19535;50.672;4.206;2023-01-06T03:24:55;2.33;;;1.80;;
33170;SDS011;19535;50.672;4.206;2023-01-06T03:27:23;1.88;;;1.77;;
33170;SDS011;19535;50.672;4.206;2023-01-06T03:29:52;2.10;;;1.80;;
33170;SDS011;19535;50.672;4.206;2023-01-06T03:38:01;1.60;;;1.50;;
33170;SDS011;19535;50.672;4.206;2023-01-06T03:40:53;1.75;;;1.65;;
33170;SDS011;19535;50.672;4.206;2023-01-06T03:43:29;1.92;;;1.73;;
33170;SDS011;19535;50.672;4.206;2023-01-06T03:49:27;2.65;;;1.73;;
33170;SDS011;19535;50.672;4.206;2023-01-06T03:51:58;2.05;;;1.67;;
33170;SDS011;19535;50.672;4.206;2023-01-06T03:54:59;1.40;;;1.30;;
33170;SDS011;19535;50.672;4.206;2023-01-06T03:57:31;1.40;;;1.30;;
33170;SDS011;19535;50.672;4.206;2023-01-06T04:00:10;1.95;;;1.45;;
33170;SDS011;19535;50.672;4.206;2023-01-06T04:02:40;1.60;;;1.50;;
33170;SDS011;19535;50.672;4.206;2023-01-06T04:05:09;1.90;;;1.73;;
33170;SDS011;19535;50.672;4.206;2023-01-06T04:07:38;1.40;;;1.30;;
33170;SDS011;19535;50.672;4.206;2023-01-06T04:10:06;1.15;;;1.10;;
33170;SDS011;19535;50.672;4.206;2023-01-06T04:12:33;1.50;;;1.40;;
33170;SDS011;19535;50.672;4.206;2023-01-06T04:15:10;1.38;;;1.27;;
33170;SDS011;19535;50.672;4.206;2023-01-06T04:17:45;1.25;;;1.15;;
33170;SDS011;19535;50.672;4.206;2023-01-06T04:20:16;1.50;;;1.40;;
33170;SDS011;19535;50.672;4.206;2023-01-06T04:22:45;1.40;;;1.30;;
33170;SDS011;19535;50.672;4.206;2023-01-06T04:25:12;1.33;;;1.20;;
33170;SDS011;19535;50.672;4.206;2023-01-06T04:27:39;1.88;;;1.30;;
33170;SDS011;19535;50.672;4.206;2023-01-06T04:30:08;1.65;;;1.30;;
33170;SDS011;19535;50.672;4.206;2023-01-06T04:32:35;1.33;;;1.23;;
33170;SDS011;19535;50.672;4.206;2023-01-06T04:35:02;1.05;;;1.02;;
33170;SDS011;19535;50.672;4.206;2023-01-06T04:37:29;2.03;;;1.25;;
33170;SDS011;19535;50.672;4.206;2023-01-06T04:39:56;1.35;;;1.20;;
33170;SDS011;19535;50.672;4.206;2023-01-06T04:42:22;1.20;;;1.10;;
33170;SDS011;19535;50.672;4.206;2023-01-06T04:44:49;1.10;;;1.00;;
33170;SDS011;19535;50.672;4.206;2023-01-06T04:47:16;1.30;;;1.20;;
33170;SDS011;19535;50.672;4.206;2023-01-06T04:49:43;1.00;;;0.90;;
33170;SDS011;19535;50.672;4.206;2023-01-06T04:52:10;1.10;;;1.00;;
33170;SDS011;19535;50.672;4.206;2023-01-06T04:54:37;2.08;;;1.10;;
33170;SDS011;19535;50.672;4.206;2023-01-06T04:57:04;1.10;;;1.00;;
33170;SDS011;19535;50.672;4.206;2023-01-06T04:59:31;1.10;;;1.00;;
33170;SDS011;19535;50.672;4.206;2023-01-06T05:01:58;1.45;;;1.35;;
33170;SDS011;19535;50.672;4.206;2023-01-06T05:04:24;1.05;;;1.00;;
33170;SDS011;19535;50.672;4.206;2023-01-06T05:06:55;1.08;;;1.08;;
33170;SDS011;19535;50.672;4.206;2023-01-06T05:09:22;1.20;;;1.10;;
33170;SDS011;19535;50.672;4.206;2023-01-06T05:11:49;2.20;;;0.95;;
33170;SDS011;19535;50.672;4.206;2023-01-06T05:14:16;1.17;;;1.08;;
33170;SDS011;19535;50.672;4.206;2023-01-06T05:16:46;1.00;;;0.90;;
33170;SDS011;19535;50.672;4.206;2023-01-06T05:19:13;0.95;;;0.90;;
33170;SDS011;19535;50.672;4.206;2023-01-06T05:21:40;1.30;;;0.90;;
33170;SDS011;19535;50.672;4.206;2023-01-06T05:24:08;1.10;;;0.85;;
33170;SDS011;19535;50.672;4.206;2023-01-06T05:26:35;1.20;;;1.08;;
33170;SDS011;19535;50.672;4.206;2023-01-06T05:29:02;1.02;;;1.00;;
33170;SDS011;19535;50.672;4.206;2023-01-06T05:31:29;1.20;;;1.10;;
33170;SDS011;19535;50.672;4.206;2023-01-06T05:33:56;1.23;;;1.17;;
33170;SDS011;19535;50.672;4.206;2023-01-06T05:36:23;1.30;;;1.20;;
33170;SDS011;19535;50.672;4.206;2023-01-06T05:38:53;0.90;;;0.90;;
33170;SDS011;19535;50.672;4.206;2023-01-06T05:41:20;0.93;;;0.90;;
33170;SDS011;19535;50.672;4.206;2023-01-06T05:43:47;1.00;;;1.00;;
33170;SDS011;19535;50.672;4.206;2023-01-06T05:46:14;1.08;;;0.90;;
33170;SDS011;19535;50.672;4.206;2023-01-06T05:48:41;0.70;;;0.70;;
33170;SDS011;19535;50.672;4.206;2023-01-06T05:51:09;1.00;;;0.90;;
33170;SDS011;19535;50.672;4.206;2023-01-06T05:53:39;0.70;;;0.70;;
33170;SDS011;19535;50.672;4.206;2023-01-06T05:56:08;2.17;;;0.77;;
33170;SDS011;19535;50.672;4.206;2023-01-06T05:58:36;0.77;;;0.77;;
33170;SDS011;19535;50.672;4.206;2023-01-06T06:01:13;1.02;;;0.90;;
33170;SDS011;19535;50.672;4.206;2023-01-06T06:03:50;0.90;;;0.70;;
33170;SDS011;19535;50.672;4.206;2023-01-06T06:06:18;1.00;;;0.80;;
33170;SDS011;19535;50.672;4.206;2023-01-06T06:08:47;0.60;;;0.60;;
33170;SDS011;19535;50.672;4.206;2023-01-06T06:11:14;0.82;;;0.82;;
33170;SDS011;19535;50.672;4.206;2023-01-06T06:13:46;0.95;;;0.95;;
33170;SDS011;19535;50.672;4.206;2023-01-06T06:16:14;1.00;;;0.70;;
33170;SDS011;19535;50.672;4.206;2023-01-06T06:18:42;0.70;;;0.70;;
33170;SDS011;19535;50.672;4.206;2023-01-06T06:21:10;0.70;;;0.70;;
33170;SDS011;19535;50.672;4.206;2023-01-06T06:23:38;0.80;;;0.70;;
33170;SDS011;19535;50.672;4.206;2023-01-06T06:26:06;0.70;;;0.70;;
33170;SDS011;19535;50.672;4.206;2023-01-06T06:28:33;0.93;;;0.93;;
33170;SDS011;19535;50.672;4.206;2023-01-06T06:31:05;0.90;;;0.90;;
33170;SDS011;19535;50.672;4.206;2023-01-06T06:33:36;4.88;;;4.47;;
33170;SDS011;19535;50.672;4.206;2023-01-06T06:36:03;7.25;;;6.55;;
33170;SDS011;19535;50.672;4.206;2023-01-06T06:38:31;6.60;;;6.00;;
33170;SDS011;19535;50.672;4.206;2023-01-06T06:40:58;9.68;;;5.90;;
33170;SDS011;19535;50.672;4.206;2023-01-06T06:43:24;9.10;;;5.57;;
33170;SDS011;19535;50.672;4.206;2023-01-06T06:45:51;9.93;;;5.25;;
33170;SDS011;19535;50.672;4.206;2023-01-06T06:48:18;11.43;;;5.53;;
33170;SDS011;19535;50.672;4.206;2023-01-06T06:50:45;14.57;;;4.90;;
33170;SDS011;19535;50.672;4.206;2023-01-06T06:53:12;10.82;;;4.53;;
33170;SDS011;19535;50.672;4.206;2023-01-06T06:55:39;12.93;;;4.55;;
33170;SDS011;19535;50.672;4.206;2023-01-06T06:58:06;16.17;;;4.90;;
33170;SDS011;19535;50.672;4.206;2023-01-06T07:00:33;15.73;;;5.05;;
33170;SDS011;19535;50.672;4.206;2023-01-06T07:03:00;10.38;;;4.32;;
33170;SDS011;19535;50.672;4.206;2023-01-06T07:05:27;12.60;;;4.38;;
33170;SDS011;19535;50.672;4.206;2023-01-06T07:07:54;14.48;;;4.60;;
33170;SDS011;19535;50.672;4.206;2023-01-06T07:10:21;13.10;;;4.75;;
33170;SDS011;19535;50.672;4.206;2023-01-06T07:12:48;14.30;;;4.47;;
33170;SDS011;19535;50.672;4.206;2023-01-06T07:15:15;13.38;;;4.50;;
33170;SDS011;19535;50.672;4.206;2023-01-06T07:17:42;15.45;;;4.88;;
33170;SDS011;19535;50.672;4.206;2023-01-06T07:20:09;15.68;;;4.13;;
33170;SDS011;19535;50.672;4.206;2023-01-06T07:22:37;11.98;;;4.25;;
33170;SDS011;19535;50.672;4.206;2023-01-06T07:25:05;12.00;;;4.68;;
33170;SDS011;19535;50.672;4.206;2023-01-06T07:27:33;9.82;;;4.20;;
33170;SDS011;19535;50.672;4.206;2023-01-06T07:30:01;12.57;;;3.85;;
33170;SDS011;19535;50.672;4.206;2023-01-06T07:32:29;12.20;;;4.35;;
33170;SDS011;19535;50.672;4.206;2023-01-06T07:34:56;12.35;;;4.28;;
33170;SDS011;19535;50.672;4.206;2023-01-06T07:37:23;9.93;;;3.95;;
33170;SDS011;19535;50.672;4.206;2023-01-06T07:39:50;13.55;;;4.32;;
33170;SDS011;19535;50.672;4.206;2023-01-06T07:42:17;11.18;;;3.72;;
33170;SDS011;19535;50.672;4.206;2023-01-06T07:44:44;11.88;;;3.60;;
33170;SDS011;19535;50.672;4.206;2023-01-06T07:47:11;13.38;;;3.65;;
33170;SDS011;19535;50.672;4.206;2023-01-06T07:49:39;8.57;;;3.30;;
33170;SDS011;19535;50.672;4.206;2023-01-06T07:52:05;9.45;;;3.10;;
33170;SDS011;19535;50.672;4.206;2023-01-06T07:54:33;8.18;;;5.13;;
33170;SDS011;19535;50.672;4.206;2023-01-06T07:56:59;14.27;;;10.02;;
33170;SDS011;19535;50.672;4.206;2023-01-06T07:59:26;12.98;;;8.60;;
33170;SDS011;19535;50.672;4.206;2023-01-06T08:01:53;9.40;;;6.63;;
33170;SDS011;19535;50.672;4.206;2023-01-06T08:04:20;12.30;;;5.50;;
33170;SDS011;19535;50.672;4.206;2023-01-06T08:06:47;10.23;;;5.18;;
33170;SDS011;19535;50.672;4.206;2023-01-06T08:09:14;9.63;;;4.85;;
33170;SDS011;19535;50.672;4.206;2023-01-06T08:11:41;7.43;;;4.00;;
33170;SDS011;19535;50.672;4.206;2023-01-06T08:14:09;7.70;;;4.32;;
33170;SDS011;19535;50.672;4.206;2023-01-06T08:16:37;9.75;;;3.90;;
33170;SDS011;19535;50.672;4.206;2023-01-06T08:19:04;5.75;;;3.40;;
33170;SDS011;19535;50.672;4.206;2023-01-06T08:21:32;9.00;;;4.68;;
33170;SDS011;19535;50.672;4.206;2023-01-06T08:23:59;10.10;;;7.00;;
33170;SDS011;19535;50.672;4.206;2023-01-06T08:26:26;7.70;;;6.22;;
33170;SDS011;19535;50.672;4.206;2023-01-06T08:28:53;7.50;;;5.43;;
33170;SDS011;19535;50.672;4.206;2023-01-06T08:31:20;9.48;;;8.07;;
33170;SDS011;19535;50.672;4.206;2023-01-06T08:33:48;13.77;;;11.35;;
33170;SDS011;19535;50.672;4.206;2023-01-06T08:36:19;9.73;;;8.83;;
33170;SDS011;19535;50.672;4.206;2023-01-06T08:38:48;7.15;;;6.13;;
33170;SDS011;19535;50.672;4.206;2023-01-06T08:41:15;7.03;;;6.15;;
33170;SDS011;19535;50.672;4.206;2023-01-06T08:43:43;6.40;;;5.57;;
33170;SDS011;19535;50.672;4.206;2023-01-06T08:46:13;6.07;;;4.53;;
33170;SDS011;19535;50.672;4.206;2023-01-06T08:48:42;5.60;;;4.15;;
33170;SDS011;19535;50.672;4.206;2023-01-06T08:51:11;6.95;;;4.18;;
33170;SDS011;19535;50.672;4.206;2023-01-06T08:53:41;7.43;;;4.35;;
33170;SDS011;19535;50.672;4.206;2023-01-06T08:56:17;6.93;;;4.00;;
33170;SDS011;19535;50.672;4.206;2023-01-06T08:58:49;7.47;;;6.35;;
33170;SDS011;19535;50.672;4.206;2023-01-06T09:01:21;10.45;;;9.35;;
33170;SDS011;19535;50.672;4.206;2023-01-06T09:03:50;7.40;;;6.70;;
33170;SDS011;19535;50.672;4.206;2023-01-06T09:06:18;9.07;;;6.47;;
33170;SDS011;19535;50.672;4.206;2023-01-06T09:08:46;8.52;;;6.05;;
33170;SDS011;19535;50.672;4.206;2023-01-06T09:11:14;7.80;;;5.25;;
33170;SDS011;19535;50.672;4.206;2023-01-06T09:13:42;6.25;;;4.57;;
33170;SDS011;19535;50.672;4.206;2023-01-06T09:16:10;5.30;;;4.70;;
33170;SDS011;19535;50.672;4.206;2023-01-06T09:18:37;6.45;;;4.32;;
33170;SDS011;19535;50.672;4.206;2023-01-06T09:21:04;5.97;;;4.05;;
33170;SDS011;19535;50.672;4.206;2023-01-06T09:23:31;5.65;;;4.30;;
33170;SDS011;19535;50.672;4.206;2023-01-06T09:25:59;5.88;;;3.65;;
33170;SDS011;19535;50.672;4.206;2023-01-06T09:28:26;5.93;;;3.80;;
33170;SDS011;19535;50.672;4.206;2023-01-06T09:30:52;5.60;;;4.05;;
33170;SDS011;19535;50.672;4.206;2023-01-06T09:33:20;4.65;;;3.40;;
33170;SDS011;19535;50.672;4.206;2023-01-06T09:35:46;6.28;;;3.47;;
33170;SDS011;19535;50.672;4.206;2023-01-06T09:38:13;3.58;;;2.88;;
33170;SDS011;19535;50.672;4.206;2023-01-06T09:40:44;4.10;;;2.97;;
33170;SDS011;19535;50.672;4.206;2023-01-06T09:43:24;5.28;;;3.25;;
33170;SDS011;19535;50.672;4.206;2023-01-06T09:46:11;3.80;;;2.80;;
33170;SDS011;19535;50.672;4.206;2023-01-06T09:48:59;5.50;;;3.05;;
33170;SDS011;19535;50.672;4.206;2023-01-06T09:51:28;3.83;;;2.60;;
33170;SDS011;19535;50.672;4.206;2023-01-06T09:53:59;4.40;;;2.78;;
33170;SDS011;19535;50.672;4.206;2023-01-06T09:56:48;4.60;;;2.50;;
33170;SDS011;19535;50.672;4.206;2023-01-06T09:59:27;3.38;;;2.50;;
33170;SDS011;19535;50.672;4.206;2023-01-06T10:01:58;5.65;;;2.63;;
33170;SDS011;19535;50.672;4.206;2023-01-06T10:04:27;4.40;;;2.80;;
33170;SDS011;19535;50.672;4.206;2023-01-06T10:15:14;3.75;;;2.25;;
33170;SDS011;19535;50.672;4.206;2023-01-06T10:23:14;2.55;;;1.92;;
33170;SDS011;19535;50.672;4.206;2023-01-06T10:25:52;14.40;;;12.82;;
33170;SDS011;19535;50.672;4.206;2023-01-06T10:31:24;8.57;;;7.78;;
33170;SDS011;19535;50.672;4.206;2023-01-06T10:33:54;6.43;;;5.82;;
33170;SDS011;19535;50.672;4.206;2023-01-06T10:36:28;4.93;;;4.47;;
33170;SDS011;19535;50.672;4.206;2023-01-06T10:39:00;4.63;;;4.22;;
33170;SDS011;19535;50.672;4.206;2023-01-06T10:44:57;3.55;;;3.25;;
33170;SDS011;19535;50.672;4.206;2023-01-06T10:47:24;3.72;;;3.08;;
33170;SDS011;19535;50.672;4.206;2023-01-06T10:49:54;3.95;;;3.53;;
33170;SDS011;19535;50.672;4.206;2023-01-06T10:52:21;3.50;;;3.10;;
33170;SDS011;19535;50.672;4.206;2023-01-06T10:54:52;3.53;;;2.83;;
33170;SDS011;19535;50.672;4.206;2023-01-06T10:57:26;3.10;;;2.80;;
33170;SDS011;19535;50.672;4.206;2023-01-06T11:02:53;2.85;;;2.55;;
33170;SDS011;19535;50.672;4.206;2023-01-06T11:05:57;3.53;;;2.17;;
33170;SDS011;19535;50.672;4.206;2023-01-06T11:08:25;8.82;;;7.57;;
33170;SDS011;19535;50.672;4.206;2023-01-06T11:10:53;6.82;;;6.20;;
33170;SDS011;19535;50.672;4.206;2023-01-06T11:13:24;6.53;;;5.57;;
33170;SDS011;19535;50.672;4.206;2023-01-06T11:16:03;6.55;;;5.32;;
33170;SDS011;19535;50.672;4.206;2023-01-06T11:18:33;4.15;;;3.72;;
33170;SDS011;19535;50.672;4.206;2023-01-06T11:21:13;4.07;;;3.50;;
33170;SDS011;19535;50.672;4.206;2023-01-06T11:23:44;3.45;;;3.10;;
33170;SDS011;19535;50.672;4.206;2023-01-06T11:28:45;3.00;;;2.70;;
33170;SDS011;19535;50.672;4.206;2023-01-06T11:33:50;3.38;;;2.80;;
33170;SDS011;19535;50.672;4.206;2023-01-06T11:36:28;3.05;;;2.50;;
33170;SDS011;19535;50.672;4.206;2023-01-06T11:38:58;2.65;;;2.42;;
33170;SDS011;19535;50.672;4.206;2023-01-06T11:41:37;2.45;;;2.25;;
33170;SDS011;19535;50.672;4.206;2023-01-06T11:44:12;2.47;;;2.28;;
33170;SDS011;19535;50.672;4.206;2023-01-06T11:46:56;2.67;;;2.30;;
33170;SDS011;19535;50.672;4.206;2023-01-06T11:49:31;2.20;;;2.00;;
33170;SDS011;19535;50.672;4.206;2023-01-06T11:52:02;2.88;;;2.58;;
33170;SDS011;19535;50.672;4.206;2023-01-06T11:54:43;2.28;;;2.10;;
33170;SDS011;19535;50.672;4.206;2023-01-06T12:00:06;2.65;;;2.10;;
33170;SDS011;19535;50.672;4.206;2023-01-06T12:11:25;1.90;;;1.80;;
33170;SDS011;19535;50.672;4.206;2023-01-06T12:14:11;2.00;;;1.80;;
33170;SDS011;19535;50.672;4.206;2023-01-06T12:19:35;2.13;;;1.80;;
33170;SDS011;19535;50.672;4.206;2023-01-06T12:22:19;2.20;;;1.70;;
33170;SDS011;19535;50.672;4.206;2023-01-06T12:24:57;1.67;;;1.45;;
33170;SDS011;19535;50.672;4.206;2023-01-06T12:35:49;4.55;;;1.50;;
33170;SDS011;19535;50.672;4.206;2023-01-06T12:41:10;1.88;;;1.42;;
33170;SDS011;19535;50.672;4.206;2023-01-06T12:43:42;2.92;;;2.63;;
33170;SDS011;19535;50.672;4.206;2023-01-06T12:46:14;5.47;;;4.18;;
33170;SDS011;19535;50.672;4.206;2023-01-06T12:48:58;5.82;;;5.32;;
33170;SDS011;19535;50.672;4.206;2023-01-06T12:54:18;3.80;;;3.50;;
33170;SDS011;19535;50.672;4.206;2023-01-06T13:07:46;2.30;;;2.17;;
33170;SDS011;19535;50.672;4.206;2023-01-06T13:10:23;2.17;;;1.98;;
33170;SDS011;19535;50.672;4.206;2023-01-06T13:15:57;7.50;;;6.90;;
33170;SDS011;19535;50.672;4.206;2023-01-06T13:21:04;9.23;;;8.52;;
33170;SDS011;19535;50.672;4.206;2023-01-06T13:23:37;7.40;;;6.80;;
33170;SDS011;19535;50.672;4.206;2023-01-06T13:26:40;6.57;;;5.85;;
33170;SDS011;19535;50.672;4.206;2023-01-06T13:29:24;5.22;;;4.72;;
33170;SDS011;19535;50.672;4.206;2023-01-06T13:40:37;3.67;;;3.10;;
33170;SDS011;19535;50.672;4.206;2023-01-06T13:43:05;3.28;;;2.97;;
33170;SDS011;19535;50.672;4.206;2023-01-06T13:45:41;2.55;;;2.35;;
33170;SDS011;19535;50.672;4.206;2023-01-06T13:48:10;2.08;;;1.98;;
33170;SDS011;19535;50.672;4.206;2023-01-06T13:50:43;2.42;;;2.22;;
33170;SDS011;19535;50.672;4.206;2023-01-06T13:53:12;2.40;;;2.20;;
33170;SDS011;19535;50.672;4.206;2023-01-06T13:55:46;2.63;;;2.42;;
33170;SDS011;19535;50.672;4.206;2023-01-06T14:03:39;7.30;;;6.60;;
33170;SDS011;19535;50.672;4.206;2023-01-06T14:06:11;6.70;;;6.10;;
33170;SDS011;19535;50.672;4.206;2023-01-06T14:08:48;5.70;;;5.25;;
33170;SDS011;19535;50.672;4.206;2023-01-06T14:14:03;3.85;;;3.55;;
33170;SDS011;19535;50.672;4.206;2023-01-06T14:16:38;5.00;;;3.20;;
33170;SDS011;19535;50.672;4.206;2023-01-06T14:21:44;2.70;;;2.50;;
33170;SDS011;19535;50.672;4.206;2023-01-06T14:38:16;2.08;;;1.98;;
33170;SDS011;19535;50.672;4.206;2023-01-06T14:40:57;2.03;;;1.92;;
33170;SDS011;19535;50.672;4.206;2023-01-06T14:46:18;2.65;;;2.13;;
33170;SDS011;19535;50.672;4.206;2023-01-06T14:49:04;2.20;;;2.10;;
33170;SDS011;19535;50.672;4.206;2023-01-06T14:51:32;2.33;;;2.13;;
33170;SDS011;19535;50.672;4.206;2023-01-06T14:54:01;2.10;;;1.95;;
33170;SDS011;19535;50.672;4.206;2023-01-06T14:56:31;2.42;;;2.20;;
33170;SDS011;19535;50.672;4.206;2023-01-06T14:59:07;2.20;;;2.00;;
33170;SDS011;19535;50.672;4.206;2023-01-06T15:01:36;1.98;;;1.80;;
33170;SDS011;19535;50.672;4.206;2023-01-06T15:04:05;2.08;;;1.77;;
33170;SDS011;19535;50.672;4.206;2023-01-06T15:06:32;1.73;;;1.50;;
33170;SDS011;19535;50.672;4.206;2023-01-06T15:09:17;2.00;;;1.90;;
33170;SDS011;19535;50.672;4.206;2023-01-06T15:11:46;2.05;;;1.85;;
33170;SDS011;19535;50.672;4.206;2023-01-06T15:14:32;3.03;;;1.90;;
33170;SDS011;19535;50.672;4.206;2023-01-06T15:17:01;2.20;;;1.60;;
33170;SDS011;19535;50.672;4.206;2023-01-06T15:19:32;1.95;;;1.85;;
33170;SDS011;19535;50.672;4.206;2023-01-06T15:22:00;1.90;;;1.70;;
33170;SDS011;19535;50.672;4.206;2023-01-06T15:24:33;1.65;;;1.50;;
33170;SDS011;19535;50.672;4.206;2023-01-06T15:27:06;2.20;;;1.63;;
33170;SDS011;19535;50.672;4.206;2023-01-06T15:29:36;2.33;;;1.40;;
33170;SDS011;19535;50.672;4.206;2023-01-06T15:32:03;1.55;;;1.45;;
33170;SDS011;19535;50.672;4.206;2023-01-06T15:34:33;1.65;;;1.50;;
33170;SDS011;19535;50.672;4.206;2023-01-06T15:37:02;1.40;;;1.30;;
33170;SDS011;19535;50.672;4.206;2023-01-06T15:39:33;1.60;;;1.50;;
33170;SDS011;19535;50.672;4.206;2023-01-06T15:42:03;1.63;;;1.52;;
33170;SDS011;19535;50.672;4.206;2023-01-06T15:44:32;1.63;;;1.40;;
33170;SDS011;19535;50.672;4.206;2023-01-06T15:49:41;1.45;;;1.35;;
33170;SDS011;19535;50.672;4.206;2023-01-06T15:54:50;1.25;;;1.15;;
33170;SDS011;19535;50.672;4.206;2023-01-06T15:57:19;1.40;;;1.30;;
33170;SDS011;19535;50.672;4.206;2023-01-06T15:59:51;1.25;;;1.10;;
33170;SDS011;19535;50.672;4.206;2023-01-06T16:02:19;1.30;;;1.20;;
33170;SDS011;19535;50.672;4.206;2023-01-06T16:04:50;1.73;;;1.45;;
33170;SDS011;19535;50.672;4.206;2023-01-06T16:07:21;1.50;;;1.40;;
33170;SDS011;19535;50.672;4.206;2023-01-06T16:09:57;1.85;;;1.60;;
33170;SDS011;19535;50.672;4.206;2023-01-06T16:12:24;1.40;;;1.10;;
33170;SDS011;19535;50.672;4.206;2023-01-06T16:14:51;1.83;;;1.20;;
33170;SDS011;19535;50.672;4.206;2023-01-06T16:17:23;1.90;;;1.20;;
33170;SDS011;19535;50.672;4.206;2023-01-06T16:20:03;1.40;;;1.30;;
33170;SDS011;19535;50.672;4.206;2023-01-06T16:22:35;1.30;;;1.20;;
33170;SDS011;19535;50.672;4.206;2023-01-06T16:25:29;1.67;;;1.23;;
33170;SDS011;19535;50.672;4.206;2023-01-06T16:27:58;1.05;;;1.00;;
33170;SDS011;19535;50.672;4.206;2023-01-06T16:30:29;1.45;;;1.20;;
33170;SDS011;19535;50.672;4.206;2023-01-06T16:32:58;1.92;;;1.13;;
33170;SDS011;19535;50.672;4.206;2023-01-06T16:35:30;1.13;;;1.00;;
33170;SDS011;19535;50.672;4.206;2023-01-06T16:37:58;1.30;;;0.88;;
33170;SDS011;19535;50.672;4.206;2023-01-06T16:40:26;2.95;;;1.15;;
33170;SDS011;19535;50.672;4.206;2023-01-06T16:42:57;1.60;;;1.08;;
33170;SDS011;19535;50.672;4.206;2023-01-06T16:45:27;1.20;;;1.10;;
33170;SDS011;19535;50.672;4.206;2023-01-06T16:48:02;1.30;;;0.90;;
33170;SDS011;19535;50.672;4.206;2023-01-06T16:53:16;1.35;;;1.25;;
33170;SDS011;19535;50.672;4.206;2023-01-06T16:55:49;1.52;;;1.10;;
33170;SDS011;19535;50.672;4.206;2023-01-06T16:58:18;0.93;;;0.93;;
33170;SDS011;19535;50.672;4.206;2023-01-06T17:00:50;1.20;;;1.10;;
33170;SDS011;19535;50.672;4.206;2023-01-06T17:03:22;0.88;;;0.88;;
33170;SDS011;19535;50.672;4.206;2023-01-06T17:05:51;1.10;;;1.00;;
33170;SDS011;19535;50.672;4.206;2023-01-06T17:08:28;1.30;;;1.10;;
33170;SDS011;19535;50.672;4.206;2023-01-06T17:10:58;1.08;;;0.98;;
33170;SDS011;19535;50.672;4.206;2023-01-06T17:13:26;1.30;;;1.00;;
33170;SDS011;19535;50.672;4.206;2023-01-06T17:18:47;1.08;;;0.90;;
33170;SDS011;19535;50.672;4.206;2023-01-06T17:21:16;1.83;;;1.10;;
33170;SDS011;19535;50.672;4.206;2023-01-06T17:24:11;1.02;;;1.00;;
33170;SDS011;19535;50.672;4.206;2023-01-06T17:26:41;0.82;;;0.82;;
33170;SDS011;19535;50.672;4.206;2023-01-06T17:29:13;1.20;;;1.00;;
33170;SDS011;19535;50.672;4.206;2023-01-06T17:31:42;7.07;;;5.03;;
33170;SDS011;19535;50.672;4.206;2023-01-06T17:34:13;6.30;;;5.80;;
33170;SDS011;19535;50.672;4.206;2023-01-06T17:36:47;6.90;;;6.20;;
33170;SDS011;19535;50.672;4.206;2023-01-06T17:39:17;4.70;;;4.30;;
33170;SDS011;19535;50.672;4.206;2023-01-06T17:41:47;4.03;;;3.72;;